sensor_id;sensor_type;location;lat;lon;timestamp;P1;durP1;ratioP1;P2;durP2;ratioP2
1995;SDS011;38556;47.068;15.408;2023-08-08T00:02:11;17.10;;;16.10;;
1995;SDS011;38556;47.068;15.408;2023-08-08T00:04:38;17.98;;;16.88;;
1995;SDS011;38556;47.068;15.408;2023-08-08T00:07:05;16.50;;;15.80;;
1995;SDS011;38556;47.068;15.408;2023-08-08T00:09:33;17.20;;;16.40;;
1995;SDS011;38556;47.068;15.408;2023-08-08T00:12:01;17.55;;;16.75;;
1995;SDS011;38556;47.068;15.408;2023-08-08T00:14:29;17.13;;;16.00;;
1995;SDS011;38556;47.068;15.408;2023-08-08T00:16:56;17.60;;;16.50;;
1995;SDS011;38556;47.068;15.408;2023-08-08T00:19:23;18.10;;;17.00;;
1995;SDS011;38556;47.068;15.408;2023-08-08T00:21:50;17.20;;;16.10;;
1995;SDS011;38556;47.068;15.408;2023-08-08T00:24:18;16.73;;;15.85;;
1995;SDS011;38556;47.068;15.408;2023-08-08T00:26:45;17.73;;;16.83;;
1995;SDS011;38556;47.068;15.408;2023-08-08T00:29:14;17.13;;;16.20;;
1995;SDS011;38556;47.068;15.408;2023-08-08T00:31:41;17.50;;;16.50;;
1995;SDS011;38556;47.068;15.408;2023-08-08T00:34:08;17.90;;;16.80;;
1995;SDS011;38556;47.068;15.408;2023-08-08T00:36:36;17.38;;;16.30;;
1995;SDS011;38556;47.068;15.408;2023-08-08T00:39:03;17.33;;;16.52;;
1995;SDS011;38556;47.068;15.408;2023-08-08T00:41:30;17.83;;;16.85;;
1995;SDS011;38556;47.068;15.408;2023-08-08T00:43:57;17.65;;;16.58;;
1995;SDS011;38556;47.068;15.408;2023-08-08T00:46:26;17.35;;;16.55;;
1995;SDS011;38556;47.068;15.408;2023-08-08T00:48:53;17.70;;;16.80;;
1995;SDS011;38556;47.068;15.408;2023-08-08T00:51:21;18.13;;;16.75;;
1995;SDS011;38556;47.068;15.408;2023-08-08T00:53:49;17.80;;;16.80;;
1995;SDS011;38556;47.068;15.408;2023-08-08T00:56:17;17.20;;;16.30;;
1995;SDS011;38556;47.068;15.408;2023-08-08T00:58:45;19.23;;;17.98;;
1995;SDS011;38556;47.068;15.408;2023-08-08T01:01:12;17.50;;;16.60;;
1995;SDS011;38556;47.068;15.408;2023-08-08T01:03:41;18.02;;;17.00;;
1995;SDS011;38556;47.068;15.408;2023-08-08T01:06:08;17.50;;;16.60;;
1995;SDS011;38556;47.068;15.408;2023-08-08T01:08:44;17.45;;;16.55;;
1995;SDS011;38556;47.068;15.408;2023-08-08T01:11:14;17.42;;;16.42;;
1995;SDS011;38556;47.068;15.408;2023-08-08T01:13:43;17.33;;;16.42;;
1995;SDS011;38556;47.068;15.408;2023-08-08T01:16:12;17.23;;;16.42;;
1995;SDS011;38556;47.068;15.408;2023-08-08T01:18:41;17.15;;;16.35;;
1995;SDS011;38556;47.068;15.408;2023-08-08T01:21:09;17.40;;;16.50;;
1995;SDS011;38556;47.068;15.408;2023-08-08T01:23:41;17.60;;;16.80;;
1995;SDS011;38556;47.068;15.408;2023-08-08T01:26:13;17.42;;;16.60;;
1995;SDS011;38556;47.068;15.408;2023-08-08T01:28:42;17.80;;;16.60;;
1995;SDS011;38556;47.068;15.408;2023-08-08T01:31:09;17.60;;;16.70;;
1995;SDS011;38556;47.068;15.408;2023-08-08T01:33:37;17.60;;;16.80;;
1995;SDS011;38556;47.068;15.408;2023-08-08T01:36:07;17.77;;;16.88;;
1995;SDS011;38556;47.068;15.408;2023-08-08T01:38:40;17.50;;;16.50;;
1995;SDS011;38556;47.068;15.408;2023-08-08T01:41:10;17.13;;;16.33;;
1995;SDS011;38556;47.068;15.408;2023-08-08T01:43:38;17.02;;;16.20;;
1995;SDS011;38556;47.068;15.408;2023-08-08T01:46:07;17.75;;;16.77;;
1995;SDS011;38556;47.068;15.408;2023-08-08T01:48:35;17.60;;;16.70;;
1995;SDS011;38556;47.068;15.408;2023-08-08T01:51:02;17.75;;;16.85;;
1995;SDS011;38556;47.068;15.408;2023-08-08T01:53:30;17.75;;;16.85;;
1995;SDS011;38556;47.068;15.408;2023-08-08T01:55:57;17.13;;;16.00;;
1995;SDS011;38556;47.068;15.408;2023-08-08T01:58:25;16.92;;;16.13;;
1995;SDS011;38556;47.068;15.408;2023-08-08T02:00:53;17.75;;;16.95;;
1995;SDS011;38556;47.068;15.408;2023-08-08T02:03:21;18.08;;;17.15;;
1995;SDS011;38556;47.068;15.408;2023-08-08T02:05:48;17.35;;;16.35;;
1995;SDS011;38556;47.068;15.408;2023-08-08T02:08:15;17.33;;;16.42;;
1995;SDS011;38556;47.068;15.408;2023-08-08T02:10:44;17.90;;;16.70;;
1995;SDS011;38556;47.068;15.408;2023-08-08T02:13:11;18.35;;;17.45;;
1995;SDS011;38556;47.068;15.408;2023-08-08T02:15:38;17.30;;;16.50;;
1995;SDS011;38556;47.068;15.408;2023-08-08T02:18:07;17.30;;;16.40;;
1995;SDS011;38556;47.068;15.408;2023-08-08T02:20:36;18.10;;;17.10;;
1995;SDS011;38556;47.068;15.408;2023-08-08T02:23:04;18.05;;;17.02;;
1995;SDS011;38556;47.068;15.408;2023-08-08T02:25:31;17.83;;;16.83;;
1995;SDS011;38556;47.068;15.408;2023-08-08T02:27:58;17.70;;;16.90;;
1995;SDS011;38556;47.068;15.408;2023-08-08T02:30:25;17.48;;;16.52;;
1995;SDS011;38556;47.068;15.408;2023-08-08T02:32:52;17.42;;;16.63;;
1995;SDS011;38556;47.068;15.408;2023-08-08T02:35:21;18.08;;;16.90;;
1995;SDS011;38556;47.068;15.408;2023-08-08T02:37:48;18.00;;;17.00;;
1995;SDS011;38556;47.068;15.408;2023-08-08T02:40:15;17.67;;;16.77;;
1995;SDS011;38556;47.068;15.408;2023-08-08T02:42:43;17.77;;;16.80;;
1995;SDS011;38556;47.068;15.408;2023-08-08T02:45:10;17.30;;;16.40;;
1995;SDS011;38556;47.068;15.408;2023-08-08T02:47:37;17.50;;;16.70;;
1995;SDS011;38556;47.068;15.408;2023-08-08T02:50:04;17.45;;;16.50;;
1995;SDS011;38556;47.068;15.408;2023-08-08T02:52:34;17.50;;;16.48;;
1995;SDS011;38556;47.068;15.408;2023-08-08T02:55:01;17.33;;;16.52;;
1995;SDS011;38556;47.068;15.408;2023-08-08T02:57:28;17.40;;;16.45;;
1995;SDS011;38556;47.068;15.408;2023-08-08T02:59:55;17.83;;;16.95;;
1995;SDS011;38556;47.068;15.408;2023-08-08T03:02:23;17.27;;;16.40;;
1995;SDS011;38556;47.068;15.408;2023-08-08T03:04:50;17.15;;;16.35;;
1995;SDS011;38556;47.068;15.408;2023-08-08T03:07:17;16.70;;;15.90;;
1995;SDS011;38556;47.068;15.408;2023-08-08T03:09:46;17.98;;;16.90;;
1995;SDS011;38556;47.068;15.408;2023-08-08T03:12:13;17.85;;;16.60;;
1995;SDS011;38556;47.068;15.408;2023-08-08T03:14:41;17.50;;;16.70;;
1995;SDS011;38556;47.068;15.408;2023-08-08T03:17:09;17.15;;;16.15;;
1995;SDS011;38556;47.068;15.408;2023-08-08T03:19:36;17.00;;;16.25;;
1995;SDS011;38556;47.068;15.408;2023-08-08T03:22:04;17.30;;;16.50;;
1995;SDS011;38556;47.068;15.408;2023-08-08T03:24:31;17.80;;;16.80;;
1995;SDS011;38556;47.068;15.408;2023-08-08T03:27:00;16.38;;;15.63;;
1995;SDS011;38556;47.068;15.408;2023-08-08T03:29:27;16.17;;;15.45;;
1995;SDS011;38556;47.068;15.408;2023-08-08T03:31:54;17.50;;;16.65;;
1995;SDS011;38556;47.068;15.408;2023-08-08T03:34:21;18.48;;;17.38;;
1995;SDS011;38556;47.068;15.408;2023-08-08T03:36:49;16.92;;;16.13;;
1995;SDS011;38556;47.068;15.408;2023-08-08T03:39:16;16.80;;;15.90;;
1995;SDS011;38556;47.068;15.408;2023-08-08T03:41:44;17.48;;;16.50;;
1995;SDS011;38556;47.068;15.408;2023-08-08T03:44:12;18.10;;;17.27;;
1995;SDS011;38556;47.068;15.408;2023-08-08T03:46:39;18.13;;;17.33;;
1995;SDS011;38556;47.068;15.408;2023-08-08T03:49:07;18.00;;;17.10;;
1995;SDS011;38556;47.068;15.408;2023-08-08T03:51:34;17.85;;;16.95;;
1995;SDS011;38556;47.068;15.408;2023-08-08T03:54:01;17.20;;;16.40;;
1995;SDS011;38556;47.068;15.408;2023-08-08T03:56:29;16.48;;;15.77;;
1995;SDS011;38556;47.068;15.408;2023-08-08T03:58:57;17.27;;;16.30;;
1995;SDS011;38556;47.068;15.408;2023-08-08T04:01:26;17.58;;;16.77;;
1995;SDS011;38556;47.068;15.408;2023-08-08T04:03:53;17.70;;;16.80;;
1995;SDS011;38556;47.068;15.408;2023-08-08T04:06:21;17.25;;;16.35;;
1995;SDS011;38556;47.068;15.408;2023-08-08T04:08:48;17.40;;;16.60;;
1995;SDS011;38556;47.068;15.408;2023-08-08T04:11:15;18.05;;;16.95;;
1995;SDS011;38556;47.068;15.408;2023-08-08T04:13:43;18.20;;;17.30;;
1995;SDS011;38556;47.068;15.408;2023-08-08T04:16:10;18.30;;;17.33;;
1995;SDS011;38556;47.068;15.408;2023-08-08T04:18:39;17.90;;;17.00;;
1995;SDS011;38556;47.068;15.408;2023-08-08T04:21:06;18.10;;;17.20;;
1995;SDS011;38556;47.068;15.408;2023-08-08T04:23:33;18.98;;;17.98;;
1995;SDS011;38556;47.068;15.408;2023-08-08T04:26:01;18.38;;;17.48;;
1995;SDS011;38556;47.068;15.408;2023-08-08T04:28:28;19.48;;;18.05;;
1995;SDS011;38556;47.068;15.408;2023-08-08T04:30:55;18.50;;;17.60;;
1995;SDS011;38556;47.068;15.408;2023-08-08T04:33:23;19.45;;;18.35;;
1995;SDS011;38556;47.068;15.408;2023-08-08T04:35:52;19.42;;;18.40;;
1995;SDS011;38556;47.068;15.408;2023-08-08T04:38:19;18.67;;;17.77;;
1995;SDS011;38556;47.068;15.408;2023-08-08T04:40:46;18.27;;;17.38;;
1995;SDS011;38556;47.068;15.408;2023-08-08T04:43:13;20.35;;;18.95;;
1995;SDS011;38556;47.068;15.408;2023-08-08T04:45:40;18.88;;;17.67;;
1995;SDS011;38556;47.068;15.408;2023-08-08T04:48:08;18.55;;;17.65;;
1995;SDS011;38556;47.068;15.408;2023-08-08T04:50:35;19.85;;;17.80;;
1995;SDS011;38556;47.068;15.408;2023-08-08T04:53:03;18.65;;;17.55;;
1995;SDS011;38556;47.068;15.408;2023-08-08T04:55:31;18.95;;;18.05;;
1995;SDS011;38556;47.068;15.408;2023-08-08T04:57:58;17.70;;;16.90;;
1995;SDS011;38556;47.068;15.408;2023-08-08T05:00:26;17.98;;;16.98;;
1995;SDS011;38556;47.068;15.408;2023-08-08T05:02:53;18.63;;;17.70;;
1995;SDS011;38556;47.068;15.408;2023-08-08T05:05:20;19.15;;;18.05;;
1995;SDS011;38556;47.068;15.408;2023-08-08T05:07:48;19.75;;;18.52;;
1995;SDS011;38556;47.068;15.408;2023-08-08T05:10:17;18.17;;;17.27;;
1995;SDS011;38556;47.068;15.408;2023-08-08T05:12:44;18.63;;;17.63;;
1995;SDS011;38556;47.068;15.408;2023-08-08T05:15:11;18.15;;;17.02;;
1995;SDS011;38556;47.068;15.408;2023-08-08T05:17:38;18.55;;;17.55;;
1995;SDS011;38556;47.068;15.408;2023-08-08T05:20:07;17.85;;;16.92;;
1995;SDS011;38556;47.068;15.408;2023-08-08T05:22:35;18.88;;;17.83;;
1995;SDS011;38556;47.068;15.408;2023-08-08T05:25:02;18.35;;;17.45;;
1995;SDS011;38556;47.068;15.408;2023-08-08T05:27:31;17.55;;;16.45;;
1995;SDS011;38556;47.068;15.408;2023-08-08T05:29:58;19.02;;;17.98;;
1995;SDS011;38556;47.068;15.408;2023-08-08T05:32:26;16.73;;;15.88;;
1995;SDS011;38556;47.068;15.408;2023-08-08T05:34:53;18.13;;;17.23;;
1995;SDS011;38556;47.068;15.408;2023-08-08T05:37:22;17.90;;;17.10;;
1995;SDS011;38556;47.068;15.408;2023-08-08T05:39:49;17.77;;;16.77;;
1995;SDS011;38556;47.068;15.408;2023-08-08T05:42:18;17.50;;;16.60;;
1995;SDS011;38556;47.068;15.408;2023-08-08T05:44:46;17.90;;;17.10;;
1995;SDS011;38556;47.068;15.408;2023-08-08T05:47:14;17.80;;;16.80;;
1995;SDS011;38556;47.068;15.408;2023-08-08T05:49:41;18.23;;;17.13;;
1995;SDS011;38556;47.068;15.408;2023-08-08T05:52:08;17.80;;;16.90;;
1995;SDS011;38556;47.068;15.408;2023-08-08T05:54:36;17.88;;;16.92;;
1995;SDS011;38556;47.068;15.408;2023-08-08T05:57:03;17.73;;;16.83;;
1995;SDS011;38556;47.068;15.408;2023-08-08T05:59:31;18.05;;;17.25;;
1995;SDS011;38556;47.068;15.408;2023-08-08T06:01:59;17.52;;;16.73;;
1995;SDS011;38556;47.068;15.408;2023-08-08T06:04:27;18.35;;;17.30;;
1995;SDS011;38556;47.068;15.408;2023-08-08T06:06:54;18.30;;;17.27;;
1995;SDS011;38556;47.068;15.408;2023-08-08T06:09:22;18.70;;;17.70;;
1995;SDS011;38556;47.068;15.408;2023-08-08T06:11:49;18.45;;;17.17;;
1995;SDS011;38556;47.068;15.408;2023-08-08T06:14:16;18.00;;;17.00;;
1995;SDS011;38556;47.068;15.408;2023-08-08T06:16:44;18.13;;;16.88;;
1995;SDS011;38556;47.068;15.408;2023-08-08T06:19:13;18.25;;;17.15;;
1995;SDS011;38556;47.068;15.408;2023-08-08T06:21:40;18.50;;;17.48;;
1995;SDS011;38556;47.068;15.408;2023-08-08T06:24:08;19.15;;;17.73;;
1995;SDS011;38556;47.068;15.408;2023-08-08T06:26:35;17.52;;;16.60;;
1995;SDS011;38556;47.068;15.408;2023-08-08T06:29:03;18.20;;;17.30;;
1995;SDS011;38556;47.068;15.408;2023-08-08T06:31:30;18.27;;;17.07;;
1995;SDS011;38556;47.068;15.408;2023-08-08T06:33:57;18.00;;;17.10;;
1995;SDS011;38556;47.068;15.408;2023-08-08T06:36:26;17.87;;;16.97;;
1995;SDS011;38556;47.068;15.408;2023-08-08T06:38:53;17.73;;;16.83;;
1995;SDS011;38556;47.068;15.408;2023-08-08T06:41:20;18.03;;;17.07;;
1995;SDS011;38556;47.068;15.408;2023-08-08T06:43:47;17.83;;;17.03;;
1995;SDS011;38556;47.068;15.408;2023-08-08T06:46:15;18.13;;;17.00;;
1995;SDS011;38556;47.068;15.408;2023-08-08T06:48:42;18.30;;;17.17;;
1995;SDS011;38556;47.068;15.408;2023-08-08T06:51:10;17.80;;;16.90;;
1995;SDS011;38556;47.068;15.408;2023-08-08T06:53:39;17.70;;;16.80;;
1995;SDS011;38556;47.068;15.408;2023-08-08T06:56:06;18.27;;;17.20;;
1995;SDS011;38556;47.068;15.408;2023-08-08T06:58:34;19.10;;;17.90;;
1995;SDS011;38556;47.068;15.408;2023-08-08T07:01:02;18.90;;;17.80;;
1995;SDS011;38556;47.068;15.408;2023-08-08T07:03:29;18.43;;;17.43;;
1995;SDS011;38556;47.068;15.408;2023-08-08T07:05:56;18.60;;;17.60;;
1995;SDS011;38556;47.068;15.408;2023-08-08T07:08:24;18.57;;;17.53;;
1995;SDS011;38556;47.068;15.408;2023-08-08T07:10:52;19.30;;;18.30;;
1995;SDS011;38556;47.068;15.408;2023-08-08T07:13:20;19.20;;;18.10;;
1995;SDS011;38556;47.068;15.408;2023-08-08T07:15:47;18.20;;;17.20;;
1995;SDS011;38556;47.068;15.408;2023-08-08T07:18:15;19.00;;;17.73;;
1995;SDS011;38556;47.068;15.408;2023-08-08T07:20:42;18.40;;;17.40;;
1995;SDS011;38556;47.068;15.408;2023-08-08T07:23:09;17.70;;;16.80;;
1995;SDS011;38556;47.068;15.408;2023-08-08T07:25:36;18.90;;;17.80;;
1995;SDS011;38556;47.068;15.408;2023-08-08T07:28:05;18.10;;;17.20;;
1995;SDS011;38556;47.068;15.408;2023-08-08T07:30:32;18.30;;;17.40;;
1995;SDS011;38556;47.068;15.408;2023-08-08T07:33:00;18.47;;;17.57;;
1995;SDS011;38556;47.068;15.408;2023-08-08T07:35:27;18.27;;;17.37;;
1995;SDS011;38556;47.068;15.408;2023-08-08T07:37:55;18.50;;;17.50;;
1995;SDS011;38556;47.068;15.408;2023-08-08T07:40:22;18.30;;;17.40;;
1995;SDS011;38556;47.068;15.408;2023-08-08T07:42:49;18.90;;;17.90;;
1995;SDS011;38556;47.068;15.408;2023-08-08T07:45:17;18.80;;;17.73;;
1995;SDS011;38556;47.068;15.408;2023-08-08T07:47:44;18.47;;;17.57;;
1995;SDS011;38556;47.068;15.408;2023-08-08T07:50:12;18.37;;;17.30;;
1995;SDS011;38556;47.068;15.408;2023-08-08T07:52:39;18.43;;;17.10;;
1995;SDS011;38556;47.068;15.408;2023-08-08T07:55:07;18.43;;;17.43;;
1995;SDS011;38556;47.068;15.408;2023-08-08T07:57:35;18.57;;;17.47;;
1995;SDS011;38556;47.068;15.408;2023-08-08T08:00:03;18.27;;;17.27;;
1995;SDS011;38556;47.068;15.408;2023-08-08T08:02:38;19.60;;;18.30;;
1995;SDS011;38556;47.068;15.408;2023-08-08T08:05:06;19.40;;;18.40;;
1995;SDS011;38556;47.068;15.408;2023-08-08T08:07:35;18.77;;;17.77;;
1995;SDS011;38556;47.068;15.408;2023-08-08T08:10:04;18.93;;;17.90;;
1995;SDS011;38556;47.068;15.408;2023-08-08T08:12:32;18.33;;;17.40;;
1995;SDS011;38556;47.068;15.408;2023-08-08T08:15:00;18.03;;;17.23;;
1995;SDS011;38556;47.068;15.408;2023-08-08T08:17:27;18.83;;;17.83;;
1995;SDS011;38556;47.068;15.408;2023-08-08T08:19:56;18.80;;;17.60;;
1995;SDS011;38556;47.068;15.408;2023-08-08T08:22:23;20.13;;;19.00;;
1995;SDS011;38556;47.068;15.408;2023-08-08T08:24:51;20.90;;;19.53;;
1995;SDS011;38556;47.068;15.408;2023-08-08T08:27:18;21.50;;;20.30;;
1995;SDS011;38556;47.068;15.408;2023-08-08T08:29:46;21.07;;;19.97;;
1995;SDS011;38556;47.068;15.408;2023-08-08T08:32:13;19.60;;;18.50;;
1995;SDS011;38556;47.068;15.408;2023-08-08T08:34:40;19.40;;;18.30;;
1995;SDS011;38556;47.068;15.408;2023-08-08T08:37:09;19.57;;;18.23;;
1995;SDS011;38556;47.068;15.408;2023-08-08T08:39:36;18.20;;;17.40;;
1995;SDS011;38556;47.068;15.408;2023-08-08T08:42:04;18.90;;;17.80;;
1995;SDS011;38556;47.068;15.408;2023-08-08T08:44:33;19.03;;;18.03;;
1995;SDS011;38556;47.068;15.408;2023-08-08T08:47:02;19.03;;;18.13;;
1995;SDS011;38556;47.068;15.408;2023-08-08T08:49:30;19.47;;;18.17;;
1995;SDS011;38556;47.068;15.408;2023-08-08T08:51:59;20.10;;;19.10;;
1995;SDS011;38556;47.068;15.408;2023-08-08T08:54:28;19.50;;;18.60;;
1995;SDS011;38556;47.068;15.408;2023-08-08T08:56:56;18.50;;;17.70;;
1995;SDS011;38556;47.068;15.408;2023-08-08T08:59:24;17.40;;;16.60;;
1995;SDS011;38556;47.068;15.408;2023-08-08T09:01:52;18.60;;;17.60;;
1995;SDS011;38556;47.068;15.408;2023-08-08T09:04:20;18.40;;;17.60;;
1995;SDS011;38556;47.068;15.408;2023-08-08T09:06:49;18.80;;;17.60;;
1995;SDS011;38556;47.068;15.408;2023-08-08T09:09:17;18.20;;;17.40;;
1995;SDS011;38556;47.068;15.408;2023-08-08T09:11:49;18.13;;;17.23;;
1995;SDS011;38556;47.068;15.408;2023-08-08T09:14:19;18.03;;;17.23;;
1995;SDS011;38556;47.068;15.408;2023-08-08T09:16:47;18.63;;;17.83;;
1995;SDS011;38556;47.068;15.408;2023-08-08T09:19:15;18.27;;;17.27;;
1995;SDS011;38556;47.068;15.408;2023-08-08T09:21:44;18.87;;;17.97;;
1995;SDS011;38556;47.068;15.408;2023-08-08T09:24:11;21.60;;;20.40;;
1995;SDS011;38556;47.068;15.408;2023-08-08T09:26:39;18.63;;;17.60;;
1995;SDS011;38556;47.068;15.408;2023-08-08T09:29:09;18.60;;;17.70;;
1995;SDS011;38556;47.068;15.408;2023-08-08T09:31:38;17.70;;;16.90;;
1995;SDS011;38556;47.068;15.408;2023-08-08T09:34:05;18.20;;;17.40;;
1995;SDS011;38556;47.068;15.408;2023-08-08T09:36:33;18.90;;;18.00;;
1995;SDS011;38556;47.068;15.408;2023-08-08T09:39:02;19.00;;;18.10;;
1995;SDS011;38556;47.068;15.408;2023-08-08T09:41:30;18.50;;;17.60;;
1995;SDS011;38556;47.068;15.408;2023-08-08T09:43:58;18.80;;;17.80;;
1995;SDS011;38556;47.068;15.408;2023-08-08T09:46:29;19.00;;;18.10;;
1995;SDS011;38556;47.068;15.408;2023-08-08T09:48:56;18.20;;;17.30;;
1995;SDS011;38556;47.068;15.408;2023-08-08T09:51:25;18.53;;;17.63;;
1995;SDS011;38556;47.068;15.408;2023-08-08T09:53:53;17.80;;;17.00;;
1995;SDS011;38556;47.068;15.408;2023-08-08T09:56:21;18.27;;;17.37;;
1995;SDS011;38556;47.068;15.408;2023-08-08T09:58:50;17.80;;;16.90;;
1995;SDS011;38556;47.068;15.408;2023-08-08T10:01:18;18.10;;;17.23;;
1995;SDS011;38556;47.068;15.408;2023-08-08T10:03:48;17.57;;;16.67;;
1995;SDS011;38556;47.068;15.408;2023-08-08T10:06:18;17.53;;;16.73;;
1995;SDS011;38556;47.068;15.408;2023-08-08T10:08:45;16.93;;;16.13;;
1995;SDS011;38556;47.068;15.408;2023-08-08T10:11:14;18.40;;;17.40;;
1995;SDS011;38556;47.068;15.408;2023-08-08T10:13:47;18.57;;;17.67;;
1995;SDS011;38556;47.068;15.408;2023-08-08T10:16:15;17.50;;;16.70;;
1995;SDS011;38556;47.068;15.408;2023-08-08T10:18:43;18.30;;;17.40;;
1995;SDS011;38556;47.068;15.408;2023-08-08T10:21:12;17.33;;;16.60;;
1995;SDS011;38556;47.068;15.408;2023-08-08T10:23:39;17.57;;;16.80;;
1995;SDS011;38556;47.068;15.408;2023-08-08T10:26:17;17.40;;;16.60;;
1995;SDS011;38556;47.068;15.408;2023-08-08T10:28:52;17.50;;;16.70;;
1995;SDS011;38556;47.068;15.408;2023-08-08T10:31:22;18.13;;;17.33;;
1995;SDS011;38556;47.068;15.408;2023-08-08T10:33:49;17.90;;;17.03;;
1995;SDS011;38556;47.068;15.408;2023-08-08T10:36:18;17.90;;;17.07;;
1995;SDS011;38556;47.068;15.408;2023-08-08T10:38:46;18.20;;;17.40;;
1995;SDS011;38556;47.068;15.408;2023-08-08T10:41:18;17.97;;;16.87;;
1995;SDS011;38556;47.068;15.408;2023-08-08T10:43:47;18.40;;;17.60;;
1995;SDS011;38556;47.068;15.408;2023-08-08T10:46:22;18.20;;;17.40;;
1995;SDS011;38556;47.068;15.408;2023-08-08T10:48:50;17.57;;;16.70;;
1995;SDS011;38556;47.068;15.408;2023-08-08T10:51:20;17.70;;;16.90;;
1995;SDS011;38556;47.068;15.408;2023-08-08T10:53:50;18.37;;;17.37;;
1995;SDS011;38556;47.068;15.408;2023-08-08T10:56:18;17.17;;;16.47;;
1995;SDS011;38556;47.068;15.408;2023-08-08T10:58:47;17.43;;;16.63;;
1995;SDS011;38556;47.068;15.408;2023-08-08T11:01:15;17.33;;;16.53;;
1995;SDS011;38556;47.068;15.408;2023-08-08T11:03:45;17.00;;;16.30;;
1995;SDS011;38556;47.068;15.408;2023-08-08T11:06:15;18.40;;;17.40;;
1995;SDS011;38556;47.068;15.408;2023-08-08T11:08:44;17.60;;;16.80;;
1995;SDS011;38556;47.068;15.408;2023-08-08T11:11:12;17.13;;;16.43;;
1995;SDS011;38556;47.068;15.408;2023-08-08T11:13:39;19.10;;;18.20;;
1995;SDS011;38556;47.068;15.408;2023-08-08T11:16:06;18.10;;;17.20;;
1995;SDS011;38556;47.068;15.408;2023-08-08T11:18:34;17.90;;;17.10;;
1995;SDS011;38556;47.068;15.408;2023-08-08T11:21:08;18.20;;;17.40;;
1995;SDS011;38556;47.068;15.408;2023-08-08T11:23:36;18.30;;;17.40;;
1995;SDS011;38556;47.068;15.408;2023-08-08T11:26:06;17.70;;;16.80;;
1995;SDS011;38556;47.068;15.408;2023-08-08T11:28:33;17.67;;;16.87;;
1995;SDS011;38556;47.068;15.408;2023-08-08T11:31:00;17.43;;;16.63;;
1995;SDS011;38556;47.068;15.408;2023-08-08T11:33:29;17.40;;;16.60;;
1995;SDS011;38556;47.068;15.408;2023-08-08T11:35:57;17.70;;;16.80;;
1995;SDS011;38556;47.068;15.408;2023-08-08T11:38:25;17.30;;;16.50;;
1995;SDS011;38556;47.068;15.408;2023-08-08T11:40:53;18.17;;;17.27;;
1995;SDS011;38556;47.068;15.408;2023-08-08T11:43:21;17.50;;;16.70;;
1995;SDS011;38556;47.068;15.408;2023-08-08T11:45:49;18.20;;;17.30;;
1995;SDS011;38556;47.068;15.408;2023-08-08T11:48:20;17.90;;;17.00;;
1995;SDS011;38556;47.068;15.408;2023-08-08T11:50:48;17.73;;;16.83;;
1995;SDS011;38556;47.068;15.408;2023-08-08T11:53:15;17.60;;;16.80;;
1995;SDS011;38556;47.068;15.408;2023-08-08T11:55:41;17.60;;;16.80;;
1995;SDS011;38556;47.068;15.408;2023-08-08T11:58:12;17.63;;;16.83;;
1995;SDS011;38556;47.068;15.408;2023-08-08T12:00:42;17.20;;;16.40;;
1995;SDS011;38556;47.068;15.408;2023-08-08T12:03:12;17.80;;;17.00;;
1995;SDS011;38556;47.068;15.408;2023-08-08T12:05:44;18.17;;;17.27;;
1995;SDS011;38556;47.068;15.408;2023-08-08T12:08:12;17.33;;;16.43;;
1995;SDS011;38556;47.068;15.408;2023-08-08T12:10:46;17.50;;;16.70;;
1995;SDS011;38556;47.068;15.408;2023-08-08T12:13:15;17.93;;;17.13;;
1995;SDS011;38556;47.068;15.408;2023-08-08T12:15:48;18.23;;;17.43;;
1995;SDS011;38556;47.068;15.408;2023-08-08T12:18:16;17.97;;;17.07;;
1995;SDS011;38556;47.068;15.408;2023-08-08T12:20:43;17.47;;;16.67;;
1995;SDS011;38556;47.068;15.408;2023-08-08T12:23:11;18.10;;;17.00;;
1995;SDS011;38556;47.068;15.408;2023-08-08T12:25:38;18.20;;;17.20;;
1995;SDS011;38556;47.068;15.408;2023-08-08T12:28:09;17.30;;;16.50;;
1995;SDS011;38556;47.068;15.408;2023-08-08T12:30:37;18.17;;;17.20;;
1995;SDS011;38556;47.068;15.408;2023-08-08T12:33:05;17.93;;;17.13;;
1995;SDS011;38556;47.068;15.408;2023-08-08T12:35:33;18.13;;;17.33;;
1995;SDS011;38556;47.068;15.408;2023-08-08T12:38:00;20.43;;;19.23;;
1995;SDS011;38556;47.068;15.408;2023-08-08T12:40:28;18.20;;;17.30;;
1995;SDS011;38556;47.068;15.408;2023-08-08T12:42:56;17.50;;;16.60;;
1995;SDS011;38556;47.068;15.408;2023-08-08T12:45:23;17.40;;;16.60;;
1995;SDS011;38556;47.068;15.408;2023-08-08T12:47:50;17.63;;;16.83;;
1995;SDS011;38556;47.068;15.408;2023-08-08T12:50:19;17.77;;;16.97;;
1995;SDS011;38556;47.068;15.408;2023-08-08T12:52:46;17.63;;;16.83;;
1995;SDS011;38556;47.068;15.408;2023-08-08T12:55:14;17.80;;;17.00;;
1995;SDS011;38556;47.068;15.408;2023-08-08T12:57:43;17.83;;;17.03;;
1995;SDS011;38556;47.068;15.408;2023-08-08T13:00:11;17.73;;;16.93;;
1995;SDS011;38556;47.068;15.408;2023-08-08T13:02:40;18.60;;;17.70;;
1995;SDS011;38556;47.068;15.408;2023-08-08T13:05:08;18.10;;;17.30;;
1995;SDS011;38556;47.068;15.408;2023-08-08T13:07:36;18.00;;;17.17;;
1995;SDS011;38556;47.068;15.408;2023-08-08T13:10:03;18.17;;;17.37;;
1995;SDS011;38556;47.068;15.408;2023-08-08T13:12:32;17.80;;;16.80;;
1995;SDS011;38556;47.068;15.408;2023-08-08T13:14:59;17.80;;;16.97;;
1995;SDS011;38556;47.068;15.408;2023-08-08T13:17:27;16.90;;;16.20;;
1995;SDS011;38556;47.068;15.408;2023-08-08T13:19:54;17.80;;;17.00;;
1995;SDS011;38556;47.068;15.408;2023-08-08T13:22:21;17.00;;;16.30;;
1995;SDS011;38556;47.068;15.408;2023-08-08T13:24:50;18.17;;;17.37;;
1995;SDS011;38556;47.068;15.408;2023-08-08T13:27:17;17.77;;;16.97;;
1995;SDS011;38556;47.068;15.408;2023-08-08T13:29:45;17.70;;;16.90;;
1995;SDS011;38556;47.068;15.408;2023-08-08T13:32:12;17.70;;;16.90;;
1995;SDS011;38556;47.068;15.408;2023-08-08T13:34:39;17.70;;;16.80;;
1995;SDS011;38556;47.068;15.408;2023-08-08T13:37:07;18.30;;;17.30;;
1995;SDS011;38556;47.068;15.408;2023-08-08T13:39:34;17.20;;;16.50;;
1995;SDS011;38556;47.068;15.408;2023-08-08T13:42:03;18.10;;;17.20;;
1995;SDS011;38556;47.068;15.408;2023-08-08T13:44:30;17.60;;;16.80;;
1995;SDS011;38556;47.068;15.408;2023-08-08T13:46:57;17.40;;;16.60;;
1995;SDS011;38556;47.068;15.408;2023-08-08T13:49:25;18.33;;;17.40;;
1995;SDS011;38556;47.068;15.408;2023-08-08T13:51:52;17.07;;;16.37;;
1995;SDS011;38556;47.068;15.408;2023-08-08T13:54:20;17.20;;;16.50;;
1995;SDS011;38556;47.068;15.408;2023-08-08T13:56:48;17.63;;;16.87;;
1995;SDS011;38556;47.068;15.408;2023-08-08T13:59:16;17.37;;;16.60;;
1995;SDS011;38556;47.068;15.408;2023-08-08T14:01:43;17.67;;;16.67;;
1995;SDS011;38556;47.068;15.408;2023-08-08T14:04:11;17.30;;;16.50;;
1995;SDS011;38556;47.068;15.408;2023-08-08T14:06:38;17.27;;;16.47;;
1995;SDS011;38556;47.068;15.408;2023-08-08T14:09:06;16.73;;;16.03;;
1995;SDS011;38556;47.068;15.408;2023-08-08T14:11:33;17.43;;;16.63;;
1995;SDS011;38556;47.068;15.408;2023-08-08T14:14:00;17.83;;;16.90;;
1995;SDS011;38556;47.068;15.408;2023-08-08T14:16:29;17.83;;;17.03;;
1995;SDS011;38556;47.068;15.408;2023-08-08T14:18:57;16.90;;;16.20;;
1995;SDS011;38556;47.068;15.408;2023-08-08T14:21:25;17.13;;;16.43;;
1995;SDS011;38556;47.068;15.408;2023-08-08T14:23:52;17.20;;;16.50;;
1995;SDS011;38556;47.068;15.408;2023-08-08T14:26:20;16.70;;;16.00;;